createdAt,value
2019-05-12T00:00:09.136Z,99.90
2019-05-12T00:02:39.677Z,99.90
2019-05-12T00:05:08.827Z,99.90
2019-05-12T00:07:38.216Z,99.90
2019-05-12T00:10:08.693Z,99.90
2019-05-12T00:12:38.550Z,99.90
2019-05-12T00:15:08.729Z,99.90
2019-05-12T00:17:38.728Z,99.90
2019-05-12T00:20:08.802Z,99.90
2019-05-12T00:22:41.892Z,99.90
2019-05-12T00:25:10.543Z,99.90
2019-05-12T00:27:39.106Z,99.90
2019-05-12T00:30:10.470Z,99.90
2019-05-12T00:32:39.130Z,99.90
2019-05-12T00:35:08.032Z,99.90
2019-05-12T00:37:38.089Z,99.90
2019-05-12T00:40:08.787Z,99.90
2019-05-12T00:42:38.280Z,99.90
2019-05-12T00:45:08.099Z,99.90
2019-05-12T00:47:38.915Z,99.90
2019-05-12T00:50:08.015Z,99.90
2019-05-12T00:52:38.491Z,99.90
2019-05-12T00:55:07.964Z,99.90
2019-05-12T00:57:38.236Z,99.90
2019-05-12T01:00:11.278Z,99.90
2019-05-12T01:02:39.907Z,99.90
2019-05-12T01:05:08.799Z,99.90
2019-05-12T01:07:38.223Z,99.90
2019-05-12T01:10:08.640Z,99.90
2019-05-12T01:12:38.230Z,99.90
2019-05-12T01:15:09.015Z,99.90
2019-05-12T01:17:40.080Z,99.90
2019-05-12T01:20:08.847Z,99.90
2019-05-12T01:22:38.274Z,99.90
2019-05-12T01:25:08.667Z,99.90
2019-05-12T01:27:38.156Z,99.90
2019-05-12T01:30:08.680Z,99.90
2019-05-12T01:32:39.437Z,99.90
2019-05-12T01:35:09.599Z,99.90
2019-05-12T01:37:38.658Z,99.90
2019-05-12T01:40:09.038Z,99.90
2019-05-12T01:42:38.332Z,99.90
2019-05-12T01:45:09.297Z,99.90
2019-05-12T01:47:38.388Z,99.90
2019-05-12T01:50:09.152Z,99.90
2019-05-12T01:52:38.655Z,99.90
2019-05-12T01:55:08.466Z,99.90
2019-05-12T01:57:38.677Z,99.90
2019-05-12T02:00:10.805Z,99.90
2019-05-12T02:02:39.633Z,99.90
2019-05-12T02:05:09.201Z,99.90
2019-05-12T02:07:42.524Z,99.90
2019-05-12T02:10:12.232Z,99.90
2019-05-12T02:12:40.821Z,99.90
2019-05-12T02:15:10.052Z,99.90
2019-05-12T02:17:39.219Z,99.90
2019-05-12T02:20:09.052Z,99.90
2019-05-12T02:22:38.799Z,99.90
2019-05-12T02:25:08.226Z,99.90
2019-05-12T02:27:38.359Z,99.90
2019-05-12T02:30:09.969Z,99.90
2019-05-12T02:32:48.334Z,99.90
2019-05-12T02:35:09.774Z,99.90
2019-05-12T02:37:38.355Z,99.90
2019-05-12T02:40:09.027Z,99.90
2019-05-12T02:42:37.704Z,99.90
2019-05-12T02:45:07.797Z,99.90
2019-05-12T02:47:36.379Z,99.90
2019-05-12T02:50:07.152Z,99.90
2019-05-12T02:52:35.989Z,99.90
2019-05-12T02:55:06.625Z,99.90
2019-05-12T02:57:36.015Z,99.90
2019-05-12T03:00:07.602Z,99.90
2019-05-12T03:02:36.439Z,99.90
2019-05-12T03:05:08.100Z,99.90
2019-05-12T03:07:36.732Z,99.90
2019-05-12T03:10:07.770Z,99.90
2019-05-12T03:12:36.334Z,99.90
2019-05-12T03:15:06.416Z,99.90
2019-05-12T03:17:35.707Z,99.90
2019-05-12T03:20:06.173Z,99.90
2019-05-12T03:22:35.423Z,99.90
2019-05-12T03:25:15.356Z,99.90
2019-05-12T03:27:36.266Z,99.90
2019-05-12T03:30:11.714Z,99.90
2019-05-12T03:32:38.337Z,99.90
2019-05-12T03:35:08.684Z,99.90
2019-05-12T03:37:37.197Z,99.90
2019-05-12T03:40:07.522Z,99.90
2019-05-12T03:42:36.096Z,99.90
2019-05-12T03:45:05.800Z,99.90
2019-05-12T03:47:35.556Z,99.90
2019-05-12T03:50:06.296Z,99.90
2019-05-12T03:52:35.211Z,99.90
2019-05-12T03:55:05.814Z,99.90
2019-05-12T03:57:34.871Z,99.90
2019-05-12T04:00:05.411Z,99.90
2019-05-12T04:02:34.276Z,99.90
2019-05-12T04:05:05.246Z,99.90
2019-05-12T04:07:34.443Z,99.90
2019-05-12T04:10:05.180Z,99.90
2019-05-12T04:12:54.847Z,99.90
2019-05-12T04:15:25.588Z,99.90
2019-05-12T04:17:54.405Z,99.90
2019-05-12T04:20:25.436Z,99.90
2019-05-12T04:22:54.732Z,99.90
2019-05-12T04:25:24.952Z,99.90
2019-05-12T04:27:54.330Z,99.90
2019-05-12T04:30:25.035Z,99.90
2019-05-12T04:32:55.279Z,99.90
2019-05-12T04:35:25.194Z,99.90
2019-05-12T04:37:55.383Z,99.90
2019-05-12T04:40:24.864Z,99.90
2019-05-12T04:42:54.825Z,99.90
2019-05-12T04:45:25.556Z,99.90
2019-05-12T04:47:55.281Z,99.90
2019-05-12T04:50:24.647Z,99.90
2019-05-12T04:52:54.871Z,99.90
2019-05-12T04:55:25.641Z,99.90
2019-05-12T04:57:54.601Z,99.90
2019-05-12T05:00:25.742Z,99.90
2019-05-12T05:02:54.507Z,99.90
2019-05-12T05:05:24.890Z,99.90
2019-05-12T05:07:54.854Z,99.90
2019-05-12T05:10:24.937Z,99.90
2019-05-12T05:12:54.325Z,99.90
2019-05-12T05:15:24.993Z,99.90
2019-05-12T05:17:54.493Z,99.90
2019-05-12T05:20:23.969Z,99.90
2019-05-12T05:22:54.234Z,99.90
2019-05-12T05:25:23.653Z,99.90
2019-05-12T05:27:53.285Z,99.90
2019-05-12T05:30:24.209Z,99.90
2019-05-12T05:32:53.556Z,99.90
2019-05-12T05:35:23.851Z,99.90
2019-05-12T05:37:54.033Z,99.90
2019-05-12T05:40:25.969Z,99.90
2019-05-12T05:42:54.284Z,99.90
2019-05-12T05:45:25.891Z,99.90
2019-05-12T05:47:54.470Z,99.90
2019-05-12T05:50:24.940Z,99.90
2019-05-12T05:52:54.240Z,99.90
2019-05-12T05:55:23.401Z,99.90
2019-05-12T05:57:53.494Z,99.90
2019-05-12T06:00:26.025Z,99.90
2019-05-12T06:02:54.513Z,99.90
2019-05-12T06:05:26.304Z,99.90
2019-05-12T06:07:53.572Z,99.90
2019-05-12T06:10:34.901Z,99.90
2019-05-12T06:12:54.248Z,99.90
2019-05-12T06:15:23.573Z,99.90
2019-05-12T06:17:53.827Z,99.90
2019-05-12T06:20:23.812Z,99.90
2019-05-12T06:22:54.618Z,99.90
2019-05-12T06:25:26.143Z,99.90
2019-05-12T06:28:00.135Z,99.90
2019-05-12T06:30:24.319Z,99.90
2019-05-12T06:32:54.675Z,99.90
2019-05-12T06:35:24.059Z,99.90
2019-05-12T06:37:58.437Z,99.90
2019-05-12T06:40:24.351Z,99.90
2019-05-12T06:42:56.979Z,99.90
2019-05-12T06:45:23.539Z,99.90
2019-05-12T06:47:54.124Z,99.90
2019-05-12T06:50:23.710Z,99.90
2019-05-12T06:52:53.147Z,99.90
2019-05-12T06:55:23.776Z,99.90
2019-05-12T06:57:53.923Z,99.90
2019-05-12T07:00:30.554Z,99.90
2019-05-12T07:02:55.173Z,99.90
2019-05-12T07:05:23.304Z,99.90
2019-05-12T07:07:53.442Z,99.90
2019-05-12T07:10:36.672Z,99.90
2019-05-12T07:13:00.667Z,99.90
2019-05-12T07:15:23.351Z,99.90
2019-05-12T07:18:04.234Z,99.90
2019-05-12T07:20:35.333Z,99.90
2019-05-12T07:23:03.982Z,99.90
2019-05-12T07:25:36.297Z,99.90
2019-05-12T07:28:07.615Z,99.90
2019-05-12T07:30:35.136Z,99.90
2019-05-12T07:33:04.749Z,99.90
2019-05-12T07:35:34.539Z,99.90
2019-05-12T07:38:04.550Z,99.90
2019-05-12T07:40:37.179Z,99.90
2019-05-12T07:43:09.832Z,99.90
2019-05-12T07:45:34.972Z,99.90
2019-05-12T07:48:08.524Z,99.90
2019-05-12T07:50:34.531Z,99.90
2019-05-12T07:53:04.254Z,99.90
2019-05-12T07:55:34.033Z,99.90
2019-05-12T07:58:10.198Z,99.90
2019-05-12T08:00:34.222Z,99.90
2019-05-12T08:03:08.012Z,99.90
2019-05-12T08:05:33.764Z,99.90
2019-05-12T08:08:08.708Z,99.90
2019-05-12T08:10:34.244Z,99.90
2019-05-12T08:13:04.426Z,99.90
2019-05-12T08:15:34.073Z,99.90
2019-05-12T08:18:07.470Z,99.90
2019-05-12T08:20:34.426Z,99.90
2019-05-12T08:23:08.629Z,99.90
2019-05-12T08:25:35.343Z,99.90
2019-05-12T08:28:14.879Z,99.90
2019-05-12T08:30:45.772Z,99.90
2019-05-12T08:33:09.939Z,99.90
2019-05-12T08:35:38.622Z,99.90
2019-05-12T08:38:07.596Z,99.90
2019-05-12T08:40:39.735Z,99.90
2019-05-12T08:43:10.252Z,99.90
2019-05-12T08:45:37.738Z,99.90
2019-05-12T08:48:10.117Z,99.90
2019-05-12T08:50:36.927Z,99.90
2019-05-12T08:53:05.500Z,99.90
2019-05-12T08:55:35.918Z,99.90
2019-05-12T08:58:04.473Z,99.90
2019-05-12T09:00:46.367Z,99.90
2019-05-12T09:03:14.146Z,99.90
2019-05-12T09:05:44.605Z,99.90
2019-05-12T09:08:13.968Z,99.90
2019-05-12T09:10:44.941Z,99.90
2019-05-12T09:13:14.350Z,99.90
2019-05-12T09:15:43.783Z,99.90
2019-05-12T09:18:14.520Z,99.90
2019-05-12T09:20:48.799Z,99.90
2019-05-12T09:23:13.640Z,99.90
2019-05-12T09:26:03.712Z,99.90
2019-05-12T09:28:44.337Z,99.90
2019-05-12T09:31:03.717Z,99.90
2019-05-12T09:33:34.601Z,99.90
2019-05-12T09:36:04.307Z,99.90
2019-05-12T09:38:33.246Z,99.90
2019-05-12T09:41:03.250Z,99.90
2019-05-12T09:43:34.251Z,99.90
2019-05-12T09:46:04.181Z,99.90
2019-05-12T09:48:33.445Z,99.90
2019-05-12T09:51:04.734Z,99.90
2019-05-12T09:53:34.065Z,99.90
2019-05-12T09:56:04.440Z,99.90
2019-05-12T09:58:33.698Z,99.90
2019-05-12T10:01:03.603Z,99.90
2019-05-12T10:03:38.777Z,99.90
2019-05-12T10:06:03.746Z,99.90
2019-05-12T10:08:35.713Z,98.80
2019-05-12T10:11:03.729Z,99.60
2019-05-12T10:13:32.427Z,99.90
2019-05-12T10:16:04.938Z,99.60
2019-05-12T10:18:33.511Z,99.70
2019-05-12T10:21:01.478Z,99.90
2019-05-12T10:23:30.048Z,99.90
2019-05-12T10:26:01.365Z,99.40
2019-05-12T10:28:28.860Z,99.90
2019-05-12T10:30:57.451Z,99.90
2019-05-12T10:33:26.020Z,99.90
2019-05-12T10:35:59.443Z,99.90
2019-05-12T10:38:24.829Z,98.30
2019-05-12T10:40:53.424Z,97.60
2019-05-12T10:43:23.661Z,96.80
2019-05-12T10:45:53.799Z,97.80
2019-05-12T10:48:23.400Z,96.70
2019-05-12T10:50:53.545Z,97.50
2019-05-12T10:53:23.534Z,95.20
2019-05-12T10:55:54.291Z,96.30
2019-05-12T10:58:24.444Z,96.20
2019-05-12T11:00:53.700Z,97.00
2019-05-12T11:03:24.394Z,98.80
2019-05-12T11:05:56.697Z,99.50
2019-05-12T11:08:24.748Z,98.20
2019-05-12T11:10:57.482Z,97.50
2019-05-12T11:13:23.588Z,95.60
2019-05-12T11:15:54.370Z,96.10
2019-05-12T11:18:26.159Z,94.90
2019-05-12T11:20:54.366Z,95.60
2019-05-12T11:23:24.494Z,95.70
2019-05-12T11:25:53.424Z,97.10
2019-05-12T11:28:24.267Z,97.50
2019-05-12T11:30:52.374Z,97.90
2019-05-12T11:33:20.962Z,98.50
2019-05-12T11:35:53.840Z,99.10
2019-05-12T11:38:21.646Z,95.60
2019-05-12T11:40:50.207Z,96.00
2019-05-12T11:43:18.818Z,97.20
2019-05-12T11:45:47.377Z,95.30
2019-05-12T11:48:15.976Z,95.10
2019-05-12T11:50:47.783Z,93.70
2019-05-12T11:53:14.787Z,92.40
2019-05-12T11:55:43.919Z,92.90
2019-05-12T11:58:12.525Z,93.00
2019-05-12T12:00:48.359Z,94.40
2019-05-12T12:03:18.221Z,93.60
2019-05-12T12:05:47.050Z,93.60
2019-05-12T12:08:15.678Z,94.20
2019-05-12T12:10:44.478Z,90.60
2019-05-12T12:13:14.094Z,90.90
2019-05-12T12:15:43.006Z,92.50
2019-05-12T12:18:14.950Z,92.40
2019-05-12T12:20:44.107Z,93.40
2019-05-12T12:23:13.948Z,94.30
2019-05-12T12:25:42.988Z,91.00
2019-05-12T12:28:13.615Z,88.90
2019-05-12T12:30:47.443Z,85.40
2019-05-12T12:33:14.377Z,83.90
2019-05-12T12:35:44.538Z,77.00
2019-05-12T12:38:14.119Z,74.50
2019-05-12T12:40:44.194Z,73.80
2019-05-12T12:43:13.786Z,74.70
2019-05-12T12:45:44.235Z,74.50
2019-05-12T12:48:13.684Z,72.80
2019-05-12T12:50:44.378Z,72.40
2019-05-12T12:53:12.845Z,72.40
2019-05-12T12:55:45.099Z,73.00
2019-05-12T12:58:14.631Z,71.80
2019-05-12T13:00:47.958Z,79.60
2019-05-12T13:03:14.425Z,80.30
2019-05-12T13:05:43.907Z,82.20
2019-05-12T13:08:12.511Z,78.20
2019-05-12T13:10:49.493Z,77.80
2019-05-12T13:13:14.049Z,77.80
2019-05-12T13:15:41.570Z,79.00
2019-05-12T13:18:15.983Z,81.50
2019-05-12T13:20:40.377Z,83.40
2019-05-12T13:23:08.945Z,84.80
2019-05-12T13:25:38.963Z,85.50
2019-05-12T13:28:12.388Z,85.00
2019-05-12T13:30:46.073Z,88.40
2019-05-12T13:33:08.851Z,87.50
2019-05-12T13:35:38.471Z,89.00
2019-05-12T13:38:07.107Z,90.10
2019-05-12T13:40:39.194Z,88.20
2019-05-12T13:43:09.236Z,86.70
2019-05-12T13:45:36.251Z,87.40
2019-05-12T13:48:09.626Z,87.00
2019-05-12T13:50:35.120Z,84.60
2019-05-12T13:53:08.871Z,82.50
2019-05-12T13:55:34.276Z,80.90
2019-05-12T13:58:04.174Z,83.90
2019-05-12T14:00:33.599Z,77.40
2019-05-12T14:03:04.860Z,75.60
2019-05-12T14:05:32.503Z,79.30
2019-05-12T14:08:01.071Z,76.40
2019-05-12T14:10:29.668Z,77.40
2019-05-12T14:12:58.236Z,76.80
2019-05-12T14:15:26.823Z,78.50
2019-05-12T14:17:55.388Z,76.40
2019-05-12T14:20:24.119Z,77.90
2019-05-12T14:22:53.783Z,80.70
2019-05-12T14:25:30.377Z,78.80
2019-05-12T14:27:53.583Z,79.90
2019-05-12T14:30:24.381Z,81.10
2019-05-12T14:32:57.130Z,85.20
2019-05-12T14:35:22.882Z,81.60
2019-05-12T14:37:51.443Z,78.90
2019-05-12T14:40:21.204Z,79.00
2019-05-12T14:42:50.259Z,79.00
2019-05-12T14:45:19.451Z,77.90
2019-05-12T14:47:49.080Z,78.30
2019-05-12T14:50:17.671Z,77.50
2019-05-12T14:52:50.129Z,77.50
2019-05-12T14:55:16.500Z,79.90
2019-05-12T14:57:45.080Z,75.50
2019-05-12T15:00:20.932Z,70.70
2019-05-12T15:02:44.331Z,70.00
2019-05-12T15:05:14.138Z,72.40
2019-05-12T15:07:51.309Z,73.30
2019-05-12T15:10:14.511Z,76.60
2019-05-12T15:12:44.085Z,73.00
2019-05-12T15:15:15.506Z,72.20
2019-05-12T15:17:44.455Z,72.30
2019-05-12T15:20:13.949Z,73.30
2019-05-12T15:22:51.388Z,75.90
2019-05-12T15:25:14.466Z,71.50
2019-05-12T15:27:47.636Z,70.30
2019-05-12T15:30:22.739Z,70.50
2019-05-12T15:32:45.122Z,64.40
2019-05-12T15:35:14.132Z,62.20
2019-05-12T15:37:43.547Z,63.40
2019-05-12T15:40:14.466Z,58.90
2019-05-12T15:42:44.958Z,61.00
2019-05-12T15:45:16.496Z,59.20
2019-05-12T15:47:44.726Z,59.10
2019-05-12T15:50:14.829Z,56.40
2019-05-12T15:52:45.588Z,56.90
2019-05-12T15:55:17.587Z,57.20
2019-05-12T15:57:44.543Z,57.40
2019-05-12T16:00:16.543Z,58.00
2019-05-12T16:02:44.316Z,53.40
2019-05-12T16:05:14.769Z,54.00
2019-05-12T16:07:47.457Z,54.60
2019-05-12T16:10:14.911Z,53.30
2019-05-12T16:12:43.806Z,52.30
2019-05-12T16:15:17.110Z,52.30
2019-05-12T16:17:44.124Z,50.90
2019-05-12T16:20:14.212Z,51.70
2019-05-12T16:22:45.132Z,49.00
2019-05-12T16:25:15.152Z,48.90
2019-05-12T16:27:44.793Z,49.20
2019-05-12T16:30:14.348Z,46.30
2019-05-12T16:32:47.676Z,48.90
2019-05-12T16:35:14.463Z,48.60
2019-05-12T16:37:44.435Z,44.60
2019-05-12T16:40:14.139Z,44.90
2019-05-12T16:42:48.354Z,45.10
2019-05-12T16:45:14.565Z,42.70
2019-05-12T16:47:44.896Z,40.50
2019-05-12T16:50:15.892Z,38.30
2019-05-12T16:52:45.634Z,40.80
2019-05-12T16:55:14.754Z,37.40
2019-05-12T16:57:51.232Z,36.70
2019-05-12T17:00:14.272Z,37.50
2019-05-12T17:02:52.165Z,37.10
2019-05-12T17:05:18.498Z,34.60
2019-05-12T17:07:44.239Z,33.30
2019-05-12T17:10:16.650Z,33.30
2019-05-12T17:12:43.995Z,33.50
2019-05-12T17:15:15.108Z,32.60
2019-05-12T17:17:44.808Z,33.20
2019-05-12T17:20:13.802Z,32.60
2019-05-12T17:22:45.662Z,30.70
2019-05-12T17:25:15.266Z,30.30
2019-05-12T17:27:44.892Z,30.80
2019-05-12T17:30:14.502Z,30.50
2019-05-12T17:32:57.013Z,31.30
2019-05-12T17:35:19.871Z,31.60
2019-05-12T17:37:45.159Z,32.30
2019-05-12T17:40:19.874Z,32.20
2019-05-12T17:42:44.486Z,29.50
2019-05-12T17:45:20.358Z,31.90
2019-05-12T17:47:44.530Z,29.60
2019-05-12T17:50:14.063Z,32.50
2019-05-12T17:52:45.024Z,31.20
2019-05-12T17:55:14.786Z,30.80
2019-05-12T17:57:44.132Z,31.60
2019-05-12T18:00:14.606Z,31.40
2019-05-12T18:02:43.998Z,33.10
2019-05-12T18:05:15.660Z,35.30
2019-05-12T18:07:44.763Z,38.20
2019-05-12T18:10:13.892Z,39.40
2019-05-12T18:12:45.058Z,40.90
2019-05-12T18:15:15.020Z,40.40
2019-05-12T18:17:45.263Z,42.10
2019-05-12T18:20:14.729Z,43.10
2019-05-12T18:22:44.873Z,43.60
2019-05-12T18:25:14.806Z,44.30
2019-05-12T18:27:50.321Z,44.00
2019-05-12T18:30:18.634Z,45.00
2019-05-12T18:32:45.018Z,46.00
2019-05-12T18:35:14.017Z,46.60
2019-05-12T18:37:42.529Z,46.40
2019-05-12T18:40:11.651Z,47.70
2019-05-12T18:42:40.217Z,48.80
2019-05-12T18:45:12.431Z,48.60
2019-05-12T18:47:40.327Z,49.30
2019-05-12T18:50:09.177Z,49.10
2019-05-12T18:52:43.034Z,50.40
2019-05-12T18:55:08.507Z,50.60
2019-05-12T18:57:39.133Z,51.20
2019-05-12T19:00:10.391Z,51.40
2019-05-12T19:02:39.167Z,52.40
2019-05-12T19:05:15.212Z,52.80
2019-05-12T19:07:39.980Z,51.70
2019-05-12T19:10:08.911Z,53.10
2019-05-12T19:12:37.558Z,53.50
2019-05-12T19:15:10.132Z,54.00
2019-05-12T19:17:38.216Z,54.10
2019-05-12T19:20:08.415Z,54.80
2019-05-12T19:22:39.373Z,54.60
2019-05-12T19:25:08.276Z,55.60
2019-05-12T19:27:36.843Z,55.70
2019-05-12T19:30:06.259Z,56.70
2019-05-12T19:32:36.745Z,57.40
2019-05-12T19:35:09.535Z,56.70
2019-05-12T19:37:36.886Z,56.90
2019-05-12T19:40:11.966Z,57.40
2019-05-12T19:42:37.502Z,58.10
2019-05-12T19:45:19.037Z,58.00
2019-05-12T19:47:38.453Z,58.70
2019-05-12T19:50:11.975Z,59.30
2019-05-12T19:52:38.115Z,59.10
2019-05-12T19:55:07.247Z,60.40
2019-05-12T19:57:35.823Z,60.90
2019-05-12T20:00:06.519Z,61.90
2019-05-12T20:02:35.093Z,62.70
2019-05-12T20:05:05.540Z,64.40
2019-05-12T20:07:34.096Z,65.80
2019-05-12T20:10:04.667Z,67.00
2019-05-12T20:12:34.343Z,68.20
2019-05-12T20:15:04.554Z,69.50
2019-05-12T20:17:33.942Z,70.50
2019-05-12T20:20:04.688Z,72.20
2019-05-12T20:22:33.444Z,72.60
2019-05-12T20:25:04.329Z,74.20
2019-05-12T20:27:34.499Z,75.30
2019-05-12T20:30:07.132Z,76.90
2019-05-12T20:32:34.417Z,78.20
2019-05-12T20:35:04.236Z,80.20
2019-05-12T20:37:33.754Z,82.50
2019-05-12T20:40:05.369Z,84.90
2019-05-12T20:42:41.890Z,87.10
2019-05-12T20:45:06.596Z,90.10
2019-05-12T20:47:39.216Z,91.50
2019-05-12T20:50:07.385Z,93.30
2019-05-12T20:52:39.487Z,95.20
2019-05-12T20:55:06.826Z,97.10
2019-05-12T20:57:40.065Z,98.50
2019-05-12T21:00:08.794Z,99.90
2019-05-12T21:02:37.458Z,99.90
2019-05-12T21:05:14.797Z,99.90
2019-05-12T21:07:37.835Z,99.90
2019-05-12T21:10:07.138Z,99.90
2019-05-12T21:12:40.099Z,99.90
2019-05-12T21:15:16.456Z,99.90
2019-05-12T21:17:42.949Z,99.90
2019-05-12T21:20:11.605Z,99.90
2019-05-12T21:22:43.416Z,99.90
2019-05-12T21:25:12.855Z,99.90
2019-05-12T21:27:46.671Z,99.90
2019-05-12T21:30:14.962Z,99.90
2019-05-12T21:32:47.103Z,99.90
2019-05-12T21:35:19.173Z,99.90
2019-05-12T21:37:46.087Z,99.90
2019-05-12T21:40:14.966Z,99.90
2019-05-12T21:42:44.662Z,99.90
2019-05-12T21:45:14.510Z,99.90
2019-05-12T21:47:44.464Z,99.90
2019-05-12T21:50:14.135Z,99.90
2019-05-12T21:52:44.656Z,99.90
2019-05-12T21:55:21.268Z,99.90
2019-05-12T21:57:43.901Z,99.90
2019-05-12T22:00:34.654Z,99.90
2019-05-12T22:03:10.289Z,99.90
2019-05-12T22:05:53.087Z,99.90
2019-05-12T22:08:06.515Z,99.90
2019-05-12T22:10:35.464Z,99.90
2019-05-12T22:13:07.375Z,99.90
2019-05-12T22:15:34.638Z,99.90
2019-05-12T22:18:04.642Z,99.90
2019-05-12T22:20:35.124Z,99.90
2019-05-12T22:23:11.754Z,99.90
2019-05-12T22:25:34.807Z,99.90
2019-05-12T22:28:07.876Z,99.90
2019-05-12T22:30:34.982Z,99.90
2019-05-12T22:33:05.948Z,99.90
2019-05-12T22:35:34.137Z,99.90
2019-05-12T22:38:09.285Z,99.90
2019-05-12T22:40:33.003Z,99.90
2019-05-12T22:43:04.441Z,99.90
2019-05-12T22:45:36.203Z,99.90
2019-05-12T22:48:04.042Z,99.90
2019-05-12T22:50:33.406Z,99.90
2019-05-12T22:53:04.576Z,99.90
2019-05-12T22:55:35.801Z,99.90
2019-05-12T22:58:03.142Z,99.90
2019-05-12T23:00:34.136Z,99.90
2019-05-12T23:03:09.226Z,99.90
2019-05-12T23:05:33.180Z,99.90
2019-05-12T23:08:06.078Z,99.90
2019-05-12T23:10:31.968Z,99.90
2019-05-12T23:13:02.026Z,99.90
2019-05-12T23:15:33.265Z,99.90
2019-05-12T23:18:01.017Z,99.90
2019-05-12T23:20:30.996Z,99.90
2019-05-12T23:23:00.003Z,99.90
2019-05-12T23:25:28.568Z,99.90
2019-05-12T23:28:00.478Z,99.90
2019-05-12T23:30:27.447Z,99.90
2019-05-12T23:32:56.029Z,99.90
2019-05-12T23:35:28.309Z,99.90
2019-05-12T23:37:54.833Z,99.90
2019-05-12T23:40:23.644Z,99.90
2019-05-12T23:42:53.583Z,99.90
2019-05-12T23:45:24.197Z,99.90
2019-05-12T23:47:54.032Z,99.90
2019-05-12T23:50:24.139Z,99.90
2019-05-12T23:52:54.033Z,99.90
2019-05-12T23:55:24.172Z,99.90
2019-05-12T23:57:53.685Z,99.90
